KFOK/FOK METAR and TAF weather

Enter ICAO airport designator
Station Type Date Time Source
KFOK METAR 2022/01/23 10:53 UTC NOAA

KFOK 231053Z AUTO 00000KT 10SM CLR M13/M16 A3000 RMK AO2 SLP160 T11281156 $


Station Type Date Time Source
KFOK Decoded METAR 2022/01/23 10:53 UTC NOAA

THE GABRESKI AIRPORT, NY, United States (KFOK) 40-51N 072-37W 33M
Jan 23, 2022 - 05:53 AM EST / 2022.01.23 1053 UTC
Wind: Calm:0
Visibility: 10 mile(s):0
Sky conditions: clear
Temperature: 9.0 F (-12.8 C)
Dew Point: 3.9 F (-15.6 C)
Relative Humidity: 79%
Pressure (altimeter): 30 in. Hg (1015 hPa)
ob: KFOK 231053Z AUTO 00000KT 10SM CLR M13/M16 A3000 RMK AO2 SLP160 T11281156
cycle: 11

Station Type Date Time Source
KFOK TAF UTC NOAA

Error!

Example: see airport list